sensor_id;sensor_type;location;lat;lon;timestamp;P1;durP1;ratioP1;P2;durP2;ratioP2
23080;SDS011;11708;50.570;8.532;2023-05-14T00:00:47;15.40;;;9.95;;
23080;SDS011;11708;50.570;8.532;2023-05-14T00:03:12;13.07;;;9.75;;
23080;SDS011;11708;50.570;8.532;2023-05-14T00:05:38;18.52;;;10.30;;
23080;SDS011;11708;50.570;8.532;2023-05-14T00:08:03;16.33;;;9.63;;
23080;SDS011;11708;50.570;8.532;2023-05-14T00:10:30;18.83;;;9.73;;
23080;SDS011;11708;50.570;8.532;2023-05-14T00:12:56;21.52;;;9.70;;
23080;SDS011;11708;50.570;8.532;2023-05-14T00:15:21;12.43;;;10.10;;
23080;SDS011;11708;50.570;8.532;2023-05-14T00:17:47;14.93;;;8.95;;
23080;SDS011;11708;50.570;8.532;2023-05-14T00:20:12;12.63;;;9.70;;
23080;SDS011;11708;50.570;8.532;2023-05-14T00:22:38;12.82;;;8.63;;
23080;SDS011;11708;50.570;8.532;2023-05-14T00:25:05;12.32;;;9.88;;
23080;SDS011;11708;50.570;8.532;2023-05-14T00:27:31;14.07;;;8.98;;
23080;SDS011;11708;50.570;8.532;2023-05-14T00:29:58;16.38;;;8.95;;
23080;SDS011;11708;50.570;8.532;2023-05-14T00:32:23;17.08;;;9.75;;
23080;SDS011;11708;50.570;8.532;2023-05-14T00:34:49;11.80;;;8.90;;
23080;SDS011;11708;50.570;8.532;2023-05-14T00:37:14;15.40;;;9.63;;
23080;SDS011;11708;50.570;8.532;2023-05-14T00:39:40;13.52;;;9.15;;
23080;SDS011;11708;50.570;8.532;2023-05-14T00:42:06;11.88;;;8.75;;
23080;SDS011;11708;50.570;8.532;2023-05-14T00:44:31;11.40;;;8.90;;
23080;SDS011;11708;50.570;8.532;2023-05-14T00:46:57;15.35;;;8.82;;
23080;SDS011;11708;50.570;8.532;2023-05-14T00:49:24;13.95;;;8.98;;
23080;SDS011;11708;50.570;8.532;2023-05-14T00:51:50;17.55;;;8.98;;
23080;SDS011;11708;50.570;8.532;2023-05-14T00:54:17;13.75;;;8.60;;
23080;SDS011;11708;50.570;8.532;2023-05-14T00:56:44;11.25;;;8.90;;
23080;SDS011;11708;50.570;8.532;2023-05-14T00:59:11;13.38;;;9.85;;
23080;SDS011;11708;50.570;8.532;2023-05-14T01:01:37;16.92;;;10.18;;
23080;SDS011;11708;50.570;8.532;2023-05-14T01:04:03;11.48;;;8.98;;
23080;SDS011;11708;50.570;8.532;2023-05-14T01:09:22;12.65;;;9.20;;
23080;SDS011;11708;50.570;8.532;2023-05-14T01:17:11;22.02;;;9.77;;
23080;SDS011;11708;50.570;8.532;2023-05-14T01:19:39;16.17;;;9.95;;
23080;SDS011;11708;50.570;8.532;2023-05-14T01:22:08;23.02;;;11.13;;
23080;SDS011;11708;50.570;8.532;2023-05-14T01:24:36;13.77;;;9.30;;
23080;SDS011;11708;50.570;8.532;2023-05-14T01:29:52;12.77;;;9.52;;
23080;SDS011;11708;50.570;8.532;2023-05-14T01:32:38;15.43;;;10.57;;
23080;SDS011;11708;50.570;8.532;2023-05-14T01:35:04;24.42;;;9.20;;
23080;SDS011;11708;50.570;8.532;2023-05-14T01:37:32;14.07;;;9.25;;
23080;SDS011;11708;50.570;8.532;2023-05-14T01:39:59;24.02;;;9.82;;
23080;SDS011;11708;50.570;8.532;2023-05-14T01:42:25;17.00;;;8.90;;
23080;SDS011;11708;50.570;8.532;2023-05-14T01:44:52;27.92;;;10.85;;
23080;SDS011;11708;50.570;8.532;2023-05-14T01:47:18;19.63;;;9.40;;
23080;SDS011;11708;50.570;8.532;2023-05-14T01:49:45;30.02;;;10.23;;
23080;SDS011;11708;50.570;8.532;2023-05-14T01:52:10;19.35;;;9.15;;
23080;SDS011;11708;50.570;8.532;2023-05-14T01:54:36;15.82;;;9.10;;
23080;SDS011;11708;50.570;8.532;2023-05-14T01:57:01;12.02;;;8.32;;
23080;SDS011;11708;50.570;8.532;2023-05-14T01:59:27;15.57;;;8.93;;
23080;SDS011;11708;50.570;8.532;2023-05-14T02:01:53;16.80;;;9.45;;
23080;SDS011;11708;50.570;8.532;2023-05-14T02:04:19;12.45;;;8.48;;
23080;SDS011;11708;50.570;8.532;2023-05-14T02:06:45;22.17;;;10.40;;
23080;SDS011;11708;50.570;8.532;2023-05-14T02:09:10;16.33;;;10.02;;
23080;SDS011;11708;50.570;8.532;2023-05-14T02:11:36;27.88;;;9.70;;
23080;SDS011;11708;50.570;8.532;2023-05-14T02:14:01;34.35;;;10.38;;
23080;SDS011;11708;50.570;8.532;2023-05-14T02:16:27;23.73;;;9.77;;
23080;SDS011;11708;50.570;8.532;2023-05-14T02:18:53;28.63;;;9.85;;
23080;SDS011;11708;50.570;8.532;2023-05-14T02:21:18;17.40;;;9.02;;
23080;SDS011;11708;50.570;8.532;2023-05-14T02:23:44;24.58;;;9.40;;
23080;SDS011;11708;50.570;8.532;2023-05-14T02:26:10;31.00;;;9.50;;
23080;SDS011;11708;50.570;8.532;2023-05-14T02:28:36;13.60;;;8.48;;
23080;SDS011;11708;50.570;8.532;2023-05-14T02:31:01;15.75;;;9.18;;
23080;SDS011;11708;50.570;8.532;2023-05-14T02:33:27;12.85;;;8.57;;
23080;SDS011;11708;50.570;8.532;2023-05-14T02:35:53;15.65;;;8.23;;
23080;SDS011;11708;50.570;8.532;2023-05-14T02:38:19;16.20;;;8.18;;
23080;SDS011;11708;50.570;8.532;2023-05-14T02:40:44;18.00;;;8.23;;
23080;SDS011;11708;50.570;8.532;2023-05-14T02:43:10;32.70;;;9.15;;
23080;SDS011;11708;50.570;8.532;2023-05-14T02:45:35;14.95;;;8.57;;
23080;SDS011;11708;50.570;8.532;2023-05-14T02:48:01;9.90;;;8.30;;
23080;SDS011;11708;50.570;8.532;2023-05-14T02:50:26;11.65;;;8.20;;
23080;SDS011;11708;50.570;8.532;2023-05-14T02:52:52;14.15;;;8.65;;
23080;SDS011;11708;50.570;8.532;2023-05-14T02:55:18;10.77;;;8.13;;
23080;SDS011;11708;50.570;8.532;2023-05-14T02:57:43;12.00;;;7.50;;
23080;SDS011;11708;50.570;8.532;2023-05-14T03:00:10;10.68;;;7.70;;
23080;SDS011;11708;50.570;8.532;2023-05-14T03:02:35;12.43;;;7.75;;
23080;SDS011;11708;50.570;8.532;2023-05-14T03:05:01;9.88;;;7.28;;
23080;SDS011;11708;50.570;8.532;2023-05-14T03:07:27;8.95;;;7.25;;
23080;SDS011;11708;50.570;8.532;2023-05-14T03:09:53;21.33;;;8.80;;
23080;SDS011;11708;50.570;8.532;2023-05-14T03:12:18;11.35;;;7.72;;
23080;SDS011;11708;50.570;8.532;2023-05-14T03:14:45;32.13;;;8.25;;
23080;SDS011;11708;50.570;8.532;2023-05-14T03:17:10;11.48;;;7.82;;
23080;SDS011;11708;50.570;8.532;2023-05-14T03:19:36;11.48;;;7.97;;
23080;SDS011;11708;50.570;8.532;2023-05-14T03:22:01;11.80;;;8.35;;
23080;SDS011;11708;50.570;8.532;2023-05-14T03:24:27;9.82;;;7.90;;
23080;SDS011;11708;50.570;8.532;2023-05-14T03:26:53;24.35;;;7.88;;
23080;SDS011;11708;50.570;8.532;2023-05-14T03:29:18;16.73;;;8.40;;
23080;SDS011;11708;50.570;8.532;2023-05-14T03:31:45;18.75;;;7.45;;
23080;SDS011;11708;50.570;8.532;2023-05-14T03:34:10;12.85;;;7.25;;
23080;SDS011;11708;50.570;8.532;2023-05-14T03:36:36;13.05;;;7.97;;
23080;SDS011;11708;50.570;8.532;2023-05-14T03:39:03;11.85;;;7.85;;
23080;SDS011;11708;50.570;8.532;2023-05-14T03:41:33;11.27;;;8.10;;
23080;SDS011;11708;50.570;8.532;2023-05-14T03:43:59;10.18;;;7.15;;
23080;SDS011;11708;50.570;8.532;2023-05-14T03:46:24;13.85;;;7.90;;
23080;SDS011;11708;50.570;8.532;2023-05-14T03:48:50;16.60;;;8.45;;
23080;SDS011;11708;50.570;8.532;2023-05-14T03:51:15;18.88;;;7.53;;
23080;SDS011;11708;50.570;8.532;2023-05-14T03:53:41;24.40;;;7.85;;
23080;SDS011;11708;50.570;8.532;2023-05-14T03:56:06;9.63;;;7.53;;
23080;SDS011;11708;50.570;8.532;2023-05-14T03:58:32;9.65;;;8.13;;
23080;SDS011;11708;50.570;8.532;2023-05-14T04:00:59;10.98;;;7.68;;
23080;SDS011;11708;50.570;8.532;2023-05-14T04:03:26;10.48;;;7.68;;
23080;SDS011;11708;50.570;8.532;2023-05-14T04:05:51;14.98;;;8.02;;
23080;SDS011;11708;50.570;8.532;2023-05-14T04:08:17;36.95;;;9.02;;
23080;SDS011;11708;50.570;8.532;2023-05-14T04:10:42;12.88;;;7.40;;
23080;SDS011;11708;50.570;8.532;2023-05-14T04:13:08;9.15;;;7.13;;
23080;SDS011;11708;50.570;8.532;2023-05-14T04:15:33;11.05;;;8.00;;
23080;SDS011;11708;50.570;8.532;2023-05-14T04:18:03;17.52;;;8.38;;
23080;SDS011;11708;50.570;8.532;2023-05-14T04:20:28;16.67;;;7.80;;
23080;SDS011;11708;50.570;8.532;2023-05-14T04:22:54;35.53;;;9.40;;
23080;SDS011;11708;50.570;8.532;2023-05-14T04:25:19;9.38;;;7.38;;
23080;SDS011;11708;50.570;8.532;2023-05-14T04:27:45;11.35;;;8.05;;
23080;SDS011;11708;50.570;8.532;2023-05-14T04:30:11;9.10;;;7.63;;
23080;SDS011;11708;50.570;8.532;2023-05-14T04:32:37;23.52;;;9.10;;
23080;SDS011;11708;50.570;8.532;2023-05-14T04:35:03;12.20;;;7.30;;
23080;SDS011;11708;50.570;8.532;2023-05-14T04:37:29;27.80;;;8.55;;
23080;SDS011;11708;50.570;8.532;2023-05-14T04:39:55;14.18;;;7.72;;
23080;SDS011;11708;50.570;8.532;2023-05-14T04:42:20;16.10;;;8.13;;
23080;SDS011;11708;50.570;8.532;2023-05-14T04:44:46;11.95;;;7.80;;
23080;SDS011;11708;50.570;8.532;2023-05-14T04:47:13;16.88;;;7.53;;
23080;SDS011;11708;50.570;8.532;2023-05-14T04:49:39;19.20;;;7.82;;
23080;SDS011;11708;50.570;8.532;2023-05-14T04:52:05;9.73;;;6.93;;
23080;SDS011;11708;50.570;8.532;2023-05-14T04:54:30;10.75;;;6.90;;
23080;SDS011;11708;50.570;8.532;2023-05-14T04:56:56;7.38;;;6.57;;
23080;SDS011;11708;50.570;8.532;2023-05-14T04:59:27;8.65;;;7.13;;
23080;SDS011;11708;50.570;8.532;2023-05-14T05:01:55;12.70;;;7.97;;
23080;SDS011;11708;50.570;8.532;2023-05-14T05:04:21;13.40;;;7.03;;
23080;SDS011;11708;50.570;8.532;2023-05-14T05:06:48;8.98;;;6.85;;
23080;SDS011;11708;50.570;8.532;2023-05-14T05:09:14;9.68;;;7.45;;
23080;SDS011;11708;50.570;8.532;2023-05-14T05:11:41;8.63;;;6.68;;
23080;SDS011;11708;50.570;8.532;2023-05-14T05:14:06;10.00;;;6.85;;
23080;SDS011;11708;50.570;8.532;2023-05-14T05:16:32;7.75;;;6.55;;
23080;SDS011;11708;50.570;8.532;2023-05-14T05:18:57;17.38;;;7.18;;
23080;SDS011;11708;50.570;8.532;2023-05-14T05:21:23;18.65;;;7.78;;
23080;SDS011;11708;50.570;8.532;2023-05-14T05:23:48;9.02;;;6.93;;
23080;SDS011;11708;50.570;8.532;2023-05-14T05:26:14;12.85;;;7.38;;
23080;SDS011;11708;50.570;8.532;2023-05-14T05:28:40;8.18;;;6.47;;
23080;SDS011;11708;50.570;8.532;2023-05-14T05:31:06;8.90;;;7.55;;
23080;SDS011;11708;50.570;8.532;2023-05-14T05:33:32;11.85;;;7.97;;
23080;SDS011;11708;50.570;8.532;2023-05-14T05:35:58;15.52;;;7.53;;
23080;SDS011;11708;50.570;8.532;2023-05-14T05:38:24;9.88;;;8.07;;
23080;SDS011;11708;50.570;8.532;2023-05-14T05:40:50;9.23;;;7.60;;
23080;SDS011;11708;50.570;8.532;2023-05-14T05:43:16;10.00;;;8.18;;
23080;SDS011;11708;50.570;8.532;2023-05-14T05:45:42;9.35;;;7.20;;
23080;SDS011;11708;50.570;8.532;2023-05-14T05:48:07;8.45;;;7.50;;
23080;SDS011;11708;50.570;8.532;2023-05-14T05:50:33;9.25;;;8.05;;
23080;SDS011;11708;50.570;8.532;2023-05-14T05:52:58;9.05;;;7.65;;
23080;SDS011;11708;50.570;8.532;2023-05-14T05:55:24;9.45;;;7.55;;
23080;SDS011;11708;50.570;8.532;2023-05-14T05:57:50;9.45;;;8.10;;
23080;SDS011;11708;50.570;8.532;2023-05-14T06:00:15;9.00;;;7.88;;
23080;SDS011;11708;50.570;8.532;2023-05-14T06:02:43;8.27;;;7.30;;
23080;SDS011;11708;50.570;8.532;2023-05-14T06:05:09;11.07;;;8.00;;
23080;SDS011;11708;50.570;8.532;2023-05-14T06:07:35;9.30;;;7.70;;
23080;SDS011;11708;50.570;8.532;2023-05-14T06:10:01;13.90;;;9.25;;
23080;SDS011;11708;50.570;8.532;2023-05-14T06:12:26;9.65;;;8.63;;
23080;SDS011;11708;50.570;8.532;2023-05-14T06:14:52;11.77;;;8.48;;
23080;SDS011;11708;50.570;8.532;2023-05-14T06:17:25;13.90;;;9.85;;
23080;SDS011;11708;50.570;8.532;2023-05-14T06:19:51;10.60;;;9.02;;
23080;SDS011;11708;50.570;8.532;2023-05-14T06:22:17;12.10;;;8.75;;
23080;SDS011;11708;50.570;8.532;2023-05-14T06:24:43;10.25;;;8.52;;
23080;SDS011;11708;50.570;8.532;2023-05-14T06:27:09;13.00;;;9.43;;
23080;SDS011;11708;50.570;8.532;2023-05-14T06:29:35;11.40;;;9.50;;
23080;SDS011;11708;50.570;8.532;2023-05-14T06:32:01;13.25;;;9.10;;
23080;SDS011;11708;50.570;8.532;2023-05-14T06:34:28;12.02;;;8.90;;
23080;SDS011;11708;50.570;8.532;2023-05-14T06:36:53;13.20;;;9.43;;
23080;SDS011;11708;50.570;8.532;2023-05-14T06:39:19;11.15;;;8.82;;
23080;SDS011;11708;50.570;8.532;2023-05-14T06:41:44;9.75;;;8.70;;
23080;SDS011;11708;50.570;8.532;2023-05-14T06:44:10;10.23;;;8.48;;
23080;SDS011;11708;50.570;8.532;2023-05-14T06:46:36;10.18;;;8.65;;
23080;SDS011;11708;50.570;8.532;2023-05-14T06:49:01;10.00;;;8.95;;
23080;SDS011;11708;50.570;8.532;2023-05-14T06:51:27;13.15;;;9.05;;
23080;SDS011;11708;50.570;8.532;2023-05-14T06:53:53;9.93;;;8.30;;
23080;SDS011;11708;50.570;8.532;2023-05-14T06:56:19;10.63;;;8.35;;
23080;SDS011;11708;50.570;8.532;2023-05-14T06:58:45;9.50;;;8.00;;
23080;SDS011;11708;50.570;8.532;2023-05-14T07:01:13;11.02;;;7.18;;
23080;SDS011;11708;50.570;8.532;2023-05-14T07:03:38;11.00;;;7.82;;
23080;SDS011;11708;50.570;8.532;2023-05-14T07:06:04;9.30;;;8.25;;
23080;SDS011;11708;50.570;8.532;2023-05-14T07:08:30;15.00;;;9.50;;
23080;SDS011;11708;50.570;8.532;2023-05-14T07:10:56;10.73;;;8.10;;
23080;SDS011;11708;50.570;8.532;2023-05-14T07:13:22;9.43;;;8.40;;
23080;SDS011;11708;50.570;8.532;2023-05-14T07:15:48;9.20;;;8.27;;
23080;SDS011;11708;50.570;8.532;2023-05-14T07:18:13;11.13;;;8.32;;
23080;SDS011;11708;50.570;8.532;2023-05-14T07:20:39;8.70;;;7.65;;
23080;SDS011;11708;50.570;8.532;2023-05-14T07:23:04;9.13;;;8.15;;
23080;SDS011;11708;50.570;8.532;2023-05-14T07:25:31;10.23;;;7.40;;
23080;SDS011;11708;50.570;8.532;2023-05-14T07:27:56;11.85;;;8.07;;
23080;SDS011;11708;50.570;8.532;2023-05-14T07:30:22;8.57;;;7.72;;
23080;SDS011;11708;50.570;8.532;2023-05-14T07:32:47;16.55;;;9.20;;
23080;SDS011;11708;50.570;8.532;2023-05-14T07:35:13;10.50;;;7.13;;
23080;SDS011;11708;50.570;8.532;2023-05-14T07:37:38;9.32;;;8.38;;
23080;SDS011;11708;50.570;8.532;2023-05-14T07:40:04;9.30;;;8.30;;
23080;SDS011;11708;50.570;8.532;2023-05-14T07:42:30;8.43;;;7.50;;
23080;SDS011;11708;50.570;8.532;2023-05-14T07:44:56;10.13;;;8.10;;
23080;SDS011;11708;50.570;8.532;2023-05-14T07:47:21;10.73;;;8.43;;
23080;SDS011;11708;50.570;8.532;2023-05-14T07:49:47;11.82;;;8.68;;
23080;SDS011;11708;50.570;8.532;2023-05-14T07:52:13;13.15;;;8.13;;
23080;SDS011;11708;50.570;8.532;2023-05-14T07:54:38;9.15;;;8.13;;
23080;SDS011;11708;50.570;8.532;2023-05-14T07:57:04;8.52;;;7.57;;
23080;SDS011;11708;50.570;8.532;2023-05-14T07:59:30;10.50;;;8.13;;
23080;SDS011;11708;50.570;8.532;2023-05-14T08:01:56;8.48;;;7.40;;
23080;SDS011;11708;50.570;8.532;2023-05-14T08:04:21;8.70;;;7.68;;
23080;SDS011;11708;50.570;8.532;2023-05-14T08:06:47;8.05;;;7.28;;
23080;SDS011;11708;50.570;8.532;2023-05-14T08:09:13;8.40;;;6.95;;
23080;SDS011;11708;50.570;8.532;2023-05-14T08:11:39;7.35;;;6.50;;
23080;SDS011;11708;50.570;8.532;2023-05-14T08:14:05;8.40;;;6.60;;
23080;SDS011;11708;50.570;8.532;2023-05-14T08:16:30;7.80;;;6.47;;
23080;SDS011;11708;50.570;8.532;2023-05-14T08:18:56;7.40;;;6.60;;
23080;SDS011;11708;50.570;8.532;2023-05-14T08:21:21;8.32;;;6.65;;
23080;SDS011;11708;50.570;8.532;2023-05-14T08:23:47;7.03;;;5.78;;
23080;SDS011;11708;50.570;8.532;2023-05-14T08:26:12;6.00;;;5.00;;
23080;SDS011;11708;50.570;8.532;2023-05-14T08:28:38;5.32;;;4.82;;
23080;SDS011;11708;50.570;8.532;2023-05-14T08:31:03;5.72;;;5.18;;
23080;SDS011;11708;50.570;8.532;2023-05-14T08:33:29;6.07;;;5.03;;
23080;SDS011;11708;50.570;8.532;2023-05-14T08:35:55;4.88;;;4.32;;
23080;SDS011;11708;50.570;8.532;2023-05-14T08:38:22;7.65;;;4.10;;
23080;SDS011;11708;50.570;8.532;2023-05-14T08:40:48;4.80;;;4.30;;
23080;SDS011;11708;50.570;8.532;2023-05-14T08:43:24;4.32;;;3.80;;
23080;SDS011;11708;50.570;8.532;2023-05-14T08:45:56;5.03;;;4.18;;
23080;SDS011;11708;50.570;8.532;2023-05-14T08:48:25;9.55;;;4.38;;
23080;SDS011;11708;50.570;8.532;2023-05-14T08:50:55;7.97;;;4.15;;
23080;SDS011;11708;50.570;8.532;2023-05-14T08:53:21;6.88;;;4.53;;
23080;SDS011;11708;50.570;8.532;2023-05-14T08:55:47;4.47;;;3.42;;
23080;SDS011;11708;50.570;8.532;2023-05-14T08:58:15;4.22;;;3.80;;
23080;SDS011;11708;50.570;8.532;2023-05-14T09:00:41;4.78;;;4.28;;
23080;SDS011;11708;50.570;8.532;2023-05-14T09:03:08;3.90;;;3.60;;
23080;SDS011;11708;50.570;8.532;2023-05-14T09:05:34;4.40;;;4.00;;
23080;SDS011;11708;50.570;8.532;2023-05-14T09:08:00;5.78;;;3.90;;
23080;SDS011;11708;50.570;8.532;2023-05-14T09:10:25;4.97;;;4.22;;
23080;SDS011;11708;50.570;8.532;2023-05-14T09:12:51;3.63;;;3.33;;
23080;SDS011;11708;50.570;8.532;2023-05-14T09:15:16;4.50;;;3.50;;
23080;SDS011;11708;50.570;8.532;2023-05-14T09:17:42;4.82;;;3.55;;
23080;SDS011;11708;50.570;8.532;2023-05-14T09:20:10;3.92;;;3.50;;
23080;SDS011;11708;50.570;8.532;2023-05-14T09:22:37;4.35;;;2.90;;
23080;SDS011;11708;50.570;8.532;2023-05-14T09:25:09;3.45;;;3.15;;
23080;SDS011;11708;50.570;8.532;2023-05-14T09:27:36;4.13;;;3.08;;
23080;SDS011;11708;50.570;8.532;2023-05-14T09:32:37;3.20;;;2.90;;
23080;SDS011;11708;50.570;8.532;2023-05-14T09:37:53;3.38;;;2.53;;
23080;SDS011;11708;50.570;8.532;2023-05-14T09:40:20;4.75;;;2.45;;
23080;SDS011;11708;50.570;8.532;2023-05-14T09:42:47;2.97;;;2.70;;
23080;SDS011;11708;50.570;8.532;2023-05-14T09:45:13;3.00;;;2.70;;
23080;SDS011;11708;50.570;8.532;2023-05-14T09:47:39;3.72;;;2.53;;
23080;SDS011;11708;50.570;8.532;2023-05-14T09:50:05;3.60;;;2.20;;
23080;SDS011;11708;50.570;8.532;2023-05-14T09:52:32;2.92;;;2.45;;
23080;SDS011;11708;50.570;8.532;2023-05-14T09:54:58;2.80;;;2.47;;
23080;SDS011;11708;50.570;8.532;2023-05-14T09:57:24;3.70;;;2.33;;
23080;SDS011;11708;50.570;8.532;2023-05-14T09:59:50;2.40;;;2.20;;
23080;SDS011;11708;50.570;8.532;2023-05-14T10:04:49;4.10;;;2.53;;
23080;SDS011;11708;50.570;8.532;2023-05-14T10:07:16;2.70;;;2.50;;
23080;SDS011;11708;50.570;8.532;2023-05-14T10:09:47;3.28;;;2.67;;
23080;SDS011;11708;50.570;8.532;2023-05-14T10:12:18;3.88;;;2.47;;
23080;SDS011;11708;50.570;8.532;2023-05-14T10:14:47;2.67;;;2.47;;
23080;SDS011;11708;50.570;8.532;2023-05-14T10:17:14;3.42;;;2.97;;
23080;SDS011;11708;50.570;8.532;2023-05-14T10:19:47;3.05;;;2.83;;
23080;SDS011;11708;50.570;8.532;2023-05-14T10:22:16;3.42;;;3.08;;
23080;SDS011;11708;50.570;8.532;2023-05-14T10:24:46;3.28;;;2.47;;
23080;SDS011;11708;50.570;8.532;2023-05-14T10:27:14;3.10;;;2.72;;
23080;SDS011;11708;50.570;8.532;2023-05-14T10:29:41;2.90;;;2.53;;
23080;SDS011;11708;50.570;8.532;2023-05-14T10:32:17;3.05;;;2.80;;
23080;SDS011;11708;50.570;8.532;2023-05-14T10:34:45;3.50;;;3.05;;
23080;SDS011;11708;50.570;8.532;2023-05-14T10:37:16;3.58;;;2.53;;
23080;SDS011;11708;50.570;8.532;2023-05-14T10:39:49;3.55;;;2.83;;
23080;SDS011;11708;50.570;8.532;2023-05-14T10:45:00;3.08;;;2.88;;
23080;SDS011;11708;50.570;8.532;2023-05-14T10:47:31;3.33;;;3.03;;
23080;SDS011;11708;50.570;8.532;2023-05-14T10:49:58;2.97;;;2.67;;
23080;SDS011;11708;50.570;8.532;2023-05-14T10:52:25;3.00;;;2.65;;
23080;SDS011;11708;50.570;8.532;2023-05-14T10:54:57;3.30;;;3.00;;
23080;SDS011;11708;50.570;8.532;2023-05-14T10:57:25;4.45;;;2.83;;
23080;SDS011;11708;50.570;8.532;2023-05-14T10:59:52;3.40;;;3.10;;
23080;SDS011;11708;50.570;8.532;2023-05-14T11:05:04;3.65;;;3.00;;
23080;SDS011;11708;50.570;8.532;2023-05-14T11:07:41;4.50;;;3.05;;
23080;SDS011;11708;50.570;8.532;2023-05-14T11:10:09;3.28;;;2.97;;
23080;SDS011;11708;50.570;8.532;2023-05-14T11:12:37;2.67;;;2.47;;
23080;SDS011;11708;50.570;8.532;2023-05-14T11:15:14;3.10;;;2.70;;
23080;SDS011;11708;50.570;8.532;2023-05-14T11:17:41;2.80;;;2.60;;
23080;SDS011;11708;50.570;8.532;2023-05-14T11:20:09;3.42;;;3.13;;
23080;SDS011;11708;50.570;8.532;2023-05-14T11:22:36;3.22;;;2.92;;
23080;SDS011;11708;50.570;8.532;2023-05-14T11:25:03;3.13;;;2.83;;
23080;SDS011;11708;50.570;8.532;2023-05-14T11:27:30;2.97;;;2.78;;
23080;SDS011;11708;50.570;8.532;2023-05-14T11:29:58;4.35;;;2.83;;
23080;SDS011;11708;50.570;8.532;2023-05-14T11:32:25;4.28;;;2.78;;
23080;SDS011;11708;50.570;8.532;2023-05-14T11:34:50;3.15;;;2.80;;
23080;SDS011;11708;50.570;8.532;2023-05-14T11:37:16;3.00;;;2.80;;
23080;SDS011;11708;50.570;8.532;2023-05-14T11:39:46;3.45;;;3.15;;
23080;SDS011;11708;50.570;8.532;2023-05-14T11:42:13;4.00;;;3.20;;
23080;SDS011;11708;50.570;8.532;2023-05-14T11:44:41;3.08;;;2.70;;
23080;SDS011;11708;50.570;8.532;2023-05-14T11:47:09;5.38;;;3.17;;
23080;SDS011;11708;50.570;8.532;2023-05-14T11:49:35;3.33;;;2.95;;
23080;SDS011;11708;50.570;8.532;2023-05-14T11:52:03;3.13;;;2.80;;
23080;SDS011;11708;50.570;8.532;2023-05-14T11:54:30;3.45;;;3.13;;
23080;SDS011;11708;50.570;8.532;2023-05-14T11:56:58;3.30;;;2.42;;
23080;SDS011;11708;50.570;8.532;2023-05-14T11:59:26;2.92;;;2.67;;
23080;SDS011;11708;50.570;8.532;2023-05-14T12:01:52;3.35;;;3.05;;
23080;SDS011;11708;50.570;8.532;2023-05-14T12:04:23;3.50;;;2.72;;
23080;SDS011;11708;50.570;8.532;2023-05-14T12:06:49;3.05;;;2.80;;
23080;SDS011;11708;50.570;8.532;2023-05-14T12:09:16;2.60;;;2.40;;
23080;SDS011;11708;50.570;8.532;2023-05-14T12:11:45;6.32;;;2.90;;
23080;SDS011;11708;50.570;8.532;2023-05-14T12:14:15;4.60;;;2.97;;
23080;SDS011;11708;50.570;8.532;2023-05-14T12:16:42;3.10;;;2.80;;
23080;SDS011;11708;50.570;8.532;2023-05-14T12:19:08;2.70;;;2.50;;
23080;SDS011;11708;50.570;8.532;2023-05-14T12:21:35;2.88;;;2.58;;
23080;SDS011;11708;50.570;8.532;2023-05-14T12:24:01;5.00;;;3.17;;
23080;SDS011;11708;50.570;8.532;2023-05-14T12:26:27;2.92;;;2.72;;
23080;SDS011;11708;50.570;8.532;2023-05-14T12:28:58;4.10;;;2.97;;
23080;SDS011;11708;50.570;8.532;2023-05-14T12:31:31;3.20;;;2.92;;
23080;SDS011;11708;50.570;8.532;2023-05-14T12:33:58;3.25;;;2.95;;
23080;SDS011;11708;50.570;8.532;2023-05-14T12:36:24;2.97;;;2.78;;
23080;SDS011;11708;50.570;8.532;2023-05-14T12:38:50;3.67;;;2.67;;
23080;SDS011;11708;50.570;8.532;2023-05-14T12:41:25;3.20;;;2.90;;
23080;SDS011;11708;50.570;8.532;2023-05-14T12:43:51;4.30;;;2.70;;
23080;SDS011;11708;50.570;8.532;2023-05-14T12:46:17;3.20;;;2.90;;
23080;SDS011;11708;50.570;8.532;2023-05-14T12:48:42;2.70;;;2.50;;
23080;SDS011;11708;50.570;8.532;2023-05-14T12:51:08;2.78;;;2.58;;
23080;SDS011;11708;50.570;8.532;2023-05-14T12:53:34;3.30;;;2.95;;
23080;SDS011;11708;50.570;8.532;2023-05-14T12:55:59;3.10;;;2.85;;
23080;SDS011;11708;50.570;8.532;2023-05-14T12:58:25;3.38;;;2.53;;
23080;SDS011;11708;50.570;8.532;2023-05-14T13:00:51;3.45;;;2.60;;
23080;SDS011;11708;50.570;8.532;2023-05-14T13:03:16;2.83;;;2.53;;
23080;SDS011;11708;50.570;8.532;2023-05-14T13:05:42;2.67;;;2.47;;
23080;SDS011;11708;50.570;8.532;2023-05-14T13:08:08;4.50;;;3.03;;
23080;SDS011;11708;50.570;8.532;2023-05-14T13:10:33;8.10;;;3.92;;
23080;SDS011;11708;50.570;8.532;2023-05-14T13:12:59;7.22;;;3.92;;
23080;SDS011;11708;50.570;8.532;2023-05-14T13:15:26;6.35;;;4.10;;
23080;SDS011;11708;50.570;8.532;2023-05-14T13:17:52;8.52;;;4.32;;
23080;SDS011;11708;50.570;8.532;2023-05-14T13:20:17;7.90;;;4.07;;
23080;SDS011;11708;50.570;8.532;2023-05-14T13:22:43;8.38;;;3.67;;
23080;SDS011;11708;50.570;8.532;2023-05-14T13:25:09;4.93;;;4.38;;
23080;SDS011;11708;50.570;8.532;2023-05-14T13:27:34;5.30;;;4.43;;
23080;SDS011;11708;50.570;8.532;2023-05-14T13:30:00;5.65;;;4.35;;
23080;SDS011;11708;50.570;8.532;2023-05-14T13:32:27;6.57;;;4.57;;
23080;SDS011;11708;50.570;8.532;2023-05-14T13:34:53;7.55;;;4.97;;
23080;SDS011;11708;50.570;8.532;2023-05-14T13:37:19;7.15;;;4.90;;
23080;SDS011;11708;50.570;8.532;2023-05-14T13:39:44;7.03;;;5.32;;
23080;SDS011;11708;50.570;8.532;2023-05-14T13:42:10;10.05;;;4.97;;
23080;SDS011;11708;50.570;8.532;2023-05-14T13:44:35;9.02;;;5.22;;
23080;SDS011;11708;50.570;8.532;2023-05-14T13:47:01;8.02;;;4.93;;
23080;SDS011;11708;50.570;8.532;2023-05-14T13:49:27;4.55;;;4.15;;
23080;SDS011;11708;50.570;8.532;2023-05-14T13:51:52;5.07;;;3.85;;
23080;SDS011;11708;50.570;8.532;2023-05-14T13:54:18;4.28;;;3.80;;
23080;SDS011;11708;50.570;8.532;2023-05-14T13:56:43;3.78;;;3.17;;
23080;SDS011;11708;50.570;8.532;2023-05-14T13:59:09;4.10;;;3.70;;
23080;SDS011;11708;50.570;8.532;2023-05-14T14:01:35;3.67;;;3.38;;
23080;SDS011;11708;50.570;8.532;2023-05-14T14:04:00;3.50;;;3.05;;
23080;SDS011;11708;50.570;8.532;2023-05-14T14:06:26;4.80;;;2.88;;
23080;SDS011;11708;50.570;8.532;2023-05-14T14:08:52;4.90;;;2.72;;
23080;SDS011;11708;50.570;8.532;2023-05-14T14:11:17;2.78;;;2.30;;
23080;SDS011;11708;50.570;8.532;2023-05-14T14:13:43;2.15;;;1.65;;
23080;SDS011;11708;50.570;8.532;2023-05-14T14:16:08;2.35;;;1.45;;
23080;SDS011;11708;50.570;8.532;2023-05-14T14:18:34;2.42;;;2.00;;
23080;SDS011;11708;50.570;8.532;2023-05-14T14:21:00;2.78;;;2.10;;
23080;SDS011;11708;50.570;8.532;2023-05-14T14:23:25;2.17;;;2.00;;
23080;SDS011;11708;50.570;8.532;2023-05-14T14:25:51;2.05;;;1.85;;
23080;SDS011;11708;50.570;8.532;2023-05-14T14:28:16;2.03;;;1.83;;
23080;SDS011;11708;50.570;8.532;2023-05-14T14:30:43;2.78;;;1.80;;
23080;SDS011;11708;50.570;8.532;2023-05-14T14:33:08;2.42;;;2.00;;
23080;SDS011;11708;50.570;8.532;2023-05-14T14:35:34;2.92;;;2.10;;
23080;SDS011;11708;50.570;8.532;2023-05-14T14:38:01;2.17;;;1.98;;
23080;SDS011;11708;50.570;8.532;2023-05-14T14:40:26;2.63;;;2.30;;
23080;SDS011;11708;50.570;8.532;2023-05-14T14:42:52;2.83;;;2.00;;
23080;SDS011;11708;50.570;8.532;2023-05-14T14:45:17;2.70;;;2.00;;
23080;SDS011;11708;50.570;8.532;2023-05-14T14:47:43;2.75;;;1.75;;
23080;SDS011;11708;50.570;8.532;2023-05-14T14:50:10;2.30;;;2.10;;
23080;SDS011;11708;50.570;8.532;2023-05-14T14:52:37;2.47;;;2.28;;
23080;SDS011;11708;50.570;8.532;2023-05-14T14:55:03;2.22;;;2.03;;
23080;SDS011;11708;50.570;8.532;2023-05-14T14:57:29;2.42;;;2.08;;
23080;SDS011;11708;50.570;8.532;2023-05-14T14:59:55;2.42;;;2.22;;